Terminal Aerodrome Forecast
Issued by NWS

Current Version | Previous Version | Text Only | Print | Product List | Glossary On
Versions: 1 2 3 4 5 6 7 8 9 10 11 12 13 14 15 16
000
FTUS42 KFFC 230500
TAFFTY
TAF
KFTY 230520Z 2306/2406 05003KT P6SM SCT030
     FM231500 07010G18KT P6SM FEW040
     FM240000 07005KT P6SM SKC=

USA.gov is the U.S. government's official web portal to all federal, state and local government web resources and services.